sensor_id;sensor_type;location;lat;lon;timestamp;P1;durP1;ratioP1;P2;durP2;ratioP2
58240;SDS011;45058;55.772;38.224;2024-02-21T00:00:58;17.67;;;9.90;;
58240;SDS011;45058;55.772;38.224;2024-02-21T00:03:24;20.77;;;9.67;;
58240;SDS011;45058;55.772;38.224;2024-02-21T00:05:50;22.80;;;10.27;;
58240;SDS011;45058;55.772;38.224;2024-02-21T00:08:16;16.57;;;9.77;;
58240;SDS011;45058;55.772;38.224;2024-02-21T00:10:42;16.93;;;9.90;;
58240;SDS011;45058;55.772;38.224;2024-02-21T00:13:08;19.23;;;10.77;;
58240;SDS011;45058;55.772;38.224;2024-02-21T00:15:34;24.33;;;11.03;;
58240;SDS011;45058;55.772;38.224;2024-02-21T00:18:00;17.00;;;10.30;;
58240;SDS011;45058;55.772;38.224;2024-02-21T00:20:26;19.10;;;9.80;;
58240;SDS011;45058;55.772;38.224;2024-02-21T00:22:52;20.27;;;10.47;;
58240;SDS011;45058;55.772;38.224;2024-02-21T00:25:18;16.40;;;10.00;;
58240;SDS011;45058;55.772;38.224;2024-02-21T00:27:44;17.93;;;10.20;;
58240;SDS011;45058;55.772;38.224;2024-02-21T00:30:11;19.57;;;11.23;;
58240;SDS011;45058;55.772;38.224;2024-02-21T00:32:37;15.50;;;9.63;;
58240;SDS011;45058;55.772;38.224;2024-02-21T00:35:03;21.40;;;9.90;;
58240;SDS011;45058;55.772;38.224;2024-02-21T00:37:31;19.03;;;10.27;;
58240;SDS011;45058;55.772;38.224;2024-02-21T00:39:57;21.50;;;10.33;;
58240;SDS011;45058;55.772;38.224;2024-02-21T00:42:23;15.93;;;9.80;;
58240;SDS011;45058;55.772;38.224;2024-02-21T00:44:49;16.60;;;10.23;;
58240;SDS011;45058;55.772;38.224;2024-02-21T00:47:15;19.47;;;10.20;;
58240;SDS011;45058;55.772;38.224;2024-02-21T00:49:41;17.83;;;10.63;;
58240;SDS011;45058;55.772;38.224;2024-02-21T00:52:07;18.87;;;10.00;;
58240;SDS011;45058;55.772;38.224;2024-02-21T00:54:33;16.13;;;9.60;;
58240;SDS011;45058;55.772;38.224;2024-02-21T00:56:59;18.63;;;10.93;;
58240;SDS011;45058;55.772;38.224;2024-02-21T00:59:26;16.37;;;10.27;;
58240;SDS011;45058;55.772;38.224;2024-02-21T01:01:52;16.73;;;10.07;;
58240;SDS011;45058;55.772;38.224;2024-02-21T01:04:17;16.83;;;9.93;;
58240;SDS011;45058;55.772;38.224;2024-02-21T01:06:43;17.97;;;10.50;;
58240;SDS011;45058;55.772;38.224;2024-02-21T01:09:10;19.57;;;10.73;;
58240;SDS011;45058;55.772;38.224;2024-02-21T01:11:37;17.93;;;10.23;;
58240;SDS011;45058;55.772;38.224;2024-02-21T01:14:03;18.67;;;10.57;;
58240;SDS011;45058;55.772;38.224;2024-02-21T01:16:29;17.47;;;9.97;;
58240;SDS011;45058;55.772;38.224;2024-02-21T01:18:55;18.43;;;10.70;;
58240;SDS011;45058;55.772;38.224;2024-02-21T01:21:21;19.43;;;10.43;;
58240;SDS011;45058;55.772;38.224;2024-02-21T01:23:47;18.07;;;10.43;;
58240;SDS011;45058;55.772;38.224;2024-02-21T01:26:13;17.03;;;10.20;;
58240;SDS011;45058;55.772;38.224;2024-02-21T01:28:41;17.97;;;10.73;;
58240;SDS011;45058;55.772;38.224;2024-02-21T01:31:07;16.40;;;10.70;;
58240;SDS011;45058;55.772;38.224;2024-02-21T01:33:33;17.07;;;9.93;;
58240;SDS011;45058;55.772;38.224;2024-02-21T01:36:04;20.33;;;10.83;;
58240;SDS011;45058;55.772;38.224;2024-02-21T01:38:34;17.40;;;10.33;;
58240;SDS011;45058;55.772;38.224;2024-02-21T01:41:00;20.87;;;11.63;;
58240;SDS011;45058;55.772;38.224;2024-02-21T01:43:27;19.80;;;10.60;;
58240;SDS011;45058;55.772;38.224;2024-02-21T01:45:53;15.23;;;10.60;;
58240;SDS011;45058;55.772;38.224;2024-02-21T01:48:22;20.00;;;10.90;;
58240;SDS011;45058;55.772;38.224;2024-02-21T01:50:49;17.17;;;10.07;;
58240;SDS011;45058;55.772;38.224;2024-02-21T01:53:16;18.90;;;10.67;;
58240;SDS011;45058;55.772;38.224;2024-02-21T01:56:04;19.93;;;10.43;;
58240;SDS011;45058;55.772;38.224;2024-02-21T01:58:31;18.13;;;10.70;;
58240;SDS011;45058;55.772;38.224;2024-02-21T02:00:59;19.90;;;11.03;;
58240;SDS011;45058;55.772;38.224;2024-02-21T02:03:25;19.30;;;10.97;;
58240;SDS011;45058;55.772;38.224;2024-02-21T02:05:52;19.93;;;10.17;;
58240;SDS011;45058;55.772;38.224;2024-02-21T02:08:19;17.57;;;11.00;;
58240;SDS011;45058;55.772;38.224;2024-02-21T02:10:45;17.13;;;10.67;;
58240;SDS011;45058;55.772;38.224;2024-02-21T02:13:12;17.30;;;10.80;;
58240;SDS011;45058;55.772;38.224;2024-02-21T02:15:40;18.53;;;11.23;;
58240;SDS011;45058;55.772;38.224;2024-02-21T02:18:15;18.63;;;10.83;;
58240;SDS011;45058;55.772;38.224;2024-02-21T02:20:46;19.07;;;10.67;;
58240;SDS011;45058;55.772;38.224;2024-02-21T02:23:32;18.60;;;10.73;;
58240;SDS011;45058;55.772;38.224;2024-02-21T02:25:59;19.55;;;11.18;;
58240;SDS011;45058;55.772;38.224;2024-02-21T02:28:29;18.20;;;10.67;;
58240;SDS011;45058;55.772;38.224;2024-02-21T02:30:55;18.03;;;11.47;;
58240;SDS011;45058;55.772;38.224;2024-02-21T02:33:21;19.10;;;11.33;;
58240;SDS011;45058;55.772;38.224;2024-02-21T02:35:47;19.43;;;10.90;;
58240;SDS011;45058;55.772;38.224;2024-02-21T02:38:13;19.00;;;11.83;;
58240;SDS011;45058;55.772;38.224;2024-02-21T02:40:40;21.70;;;11.03;;
58240;SDS011;45058;55.772;38.224;2024-02-21T02:43:07;19.23;;;10.83;;
58240;SDS011;45058;55.772;38.224;2024-02-21T02:45:33;21.33;;;11.40;;
58240;SDS011;45058;55.772;38.224;2024-02-21T02:47:59;19.60;;;11.97;;
58240;SDS011;45058;55.772;38.224;2024-02-21T02:50:25;21.60;;;12.17;;
58240;SDS011;45058;55.772;38.224;2024-02-21T02:52:52;17.93;;;11.73;;
58240;SDS011;45058;55.772;38.224;2024-02-21T02:55:19;19.33;;;11.10;;
58240;SDS011;45058;55.772;38.224;2024-02-21T02:57:46;21.97;;;12.07;;
58240;SDS011;45058;55.772;38.224;2024-02-21T03:00:12;18.53;;;11.20;;
58240;SDS011;45058;55.772;38.224;2024-02-21T03:02:41;24.07;;;12.40;;
58240;SDS011;45058;55.772;38.224;2024-02-21T03:05:15;21.77;;;11.33;;
58240;SDS011;45058;55.772;38.224;2024-02-21T03:07:43;20.27;;;12.45;;
58240;SDS011;45058;55.772;38.224;2024-02-21T03:10:10;18.10;;;11.50;;
58240;SDS011;45058;55.772;38.224;2024-02-21T03:12:37;18.97;;;11.53;;
58240;SDS011;45058;55.772;38.224;2024-02-21T03:15:03;17.83;;;10.97;;
58240;SDS011;45058;55.772;38.224;2024-02-21T03:17:32;27.03;;;12.53;;
58240;SDS011;45058;55.772;38.224;2024-02-21T03:20:01;18.83;;;11.83;;
58240;SDS011;45058;55.772;38.224;2024-02-21T03:22:33;20.00;;;11.97;;
58240;SDS011;45058;55.772;38.224;2024-02-21T03:25:00;19.27;;;11.80;;
58240;SDS011;45058;55.772;38.224;2024-02-21T03:27:29;22.63;;;12.53;;
58240;SDS011;45058;55.772;38.224;2024-02-21T03:29:55;22.20;;;12.77;;
58240;SDS011;45058;55.772;38.224;2024-02-21T03:32:21;22.37;;;12.93;;
58240;SDS011;45058;55.772;38.224;2024-02-21T03:34:47;20.73;;;12.60;;
58240;SDS011;45058;55.772;38.224;2024-02-21T03:37:13;21.80;;;11.07;;
58240;SDS011;45058;55.772;38.224;2024-02-21T03:39:40;19.20;;;11.27;;
58240;SDS011;45058;55.772;38.224;2024-02-21T03:42:06;17.93;;;11.73;;
58240;SDS011;45058;55.772;38.224;2024-02-21T03:44:32;19.30;;;11.63;;
58240;SDS011;45058;55.772;38.224;2024-02-21T03:46:59;20.73;;;11.87;;
58240;SDS011;45058;55.772;38.224;2024-02-21T03:49:25;23.37;;;12.67;;
58240;SDS011;45058;55.772;38.224;2024-02-21T03:51:52;24.00;;;12.97;;
58240;SDS011;45058;55.772;38.224;2024-02-21T03:54:18;17.63;;;10.23;;
58240;SDS011;45058;55.772;38.224;2024-02-21T03:56:44;20.80;;;12.00;;
58240;SDS011;45058;55.772;38.224;2024-02-21T03:59:11;24.70;;;13.80;;
58240;SDS011;45058;55.772;38.224;2024-02-21T04:01:37;20.20;;;12.03;;
58240;SDS011;45058;55.772;38.224;2024-02-21T04:04:03;20.00;;;11.70;;
58240;SDS011;45058;55.772;38.224;2024-02-21T04:06:29;30.53;;;13.17;;
58240;SDS011;45058;55.772;38.224;2024-02-21T04:08:56;21.27;;;11.87;;
58240;SDS011;45058;55.772;38.224;2024-02-21T04:11:22;25.37;;;13.63;;
58240;SDS011;45058;55.772;38.224;2024-02-21T04:13:48;20.00;;;12.43;;
58240;SDS011;45058;55.772;38.224;2024-02-21T04:16:16;21.00;;;12.67;;
58240;SDS011;45058;55.772;38.224;2024-02-21T04:18:43;19.93;;;12.17;;
58240;SDS011;45058;55.772;38.224;2024-02-21T04:21:14;21.77;;;12.37;;
58240;SDS011;45058;55.772;38.224;2024-02-21T04:23:40;22.50;;;13.00;;
58240;SDS011;45058;55.772;38.224;2024-02-21T04:26:07;22.03;;;12.03;;
58240;SDS011;45058;55.772;38.224;2024-02-21T04:28:33;22.40;;;12.60;;
58240;SDS011;45058;55.772;38.224;2024-02-21T04:30:59;25.30;;;12.73;;
58240;SDS011;45058;55.772;38.224;2024-02-21T04:33:25;20.90;;;12.87;;
58240;SDS011;45058;55.772;38.224;2024-02-21T04:35:51;24.00;;;12.23;;
58240;SDS011;45058;55.772;38.224;2024-02-21T04:38:20;23.37;;;13.33;;
58240;SDS011;45058;55.772;38.224;2024-02-21T04:40:46;22.97;;;13.20;;
58240;SDS011;45058;55.772;38.224;2024-02-21T04:43:12;21.93;;;13.00;;
58240;SDS011;45058;55.772;38.224;2024-02-21T04:45:41;24.23;;;13.20;;
58240;SDS011;45058;55.772;38.224;2024-02-21T04:48:07;23.13;;;12.97;;
58240;SDS011;45058;55.772;38.224;2024-02-21T04:50:33;26.83;;;12.70;;
58240;SDS011;45058;55.772;38.224;2024-02-21T04:52:59;23.83;;;13.87;;
58240;SDS011;45058;55.772;38.224;2024-02-21T04:55:25;24.83;;;13.77;;
58240;SDS011;45058;55.772;38.224;2024-02-21T04:57:51;24.17;;;12.93;;
58240;SDS011;45058;55.772;38.224;2024-02-21T05:00:18;25.47;;;13.97;;
58240;SDS011;45058;55.772;38.224;2024-02-21T05:02:44;24.57;;;13.63;;
58240;SDS011;45058;55.772;38.224;2024-02-21T05:05:10;23.80;;;13.57;;
58240;SDS011;45058;55.772;38.224;2024-02-21T05:07:36;24.07;;;12.93;;
58240;SDS011;45058;55.772;38.224;2024-02-21T05:10:02;24.47;;;13.33;;
58240;SDS011;45058;55.772;38.224;2024-02-21T05:12:30;25.50;;;12.97;;
58240;SDS011;45058;55.772;38.224;2024-02-21T05:14:57;26.73;;;13.63;;
58240;SDS011;45058;55.772;38.224;2024-02-21T05:17:23;22.73;;;13.17;;
58240;SDS011;45058;55.772;38.224;2024-02-21T05:19:49;25.13;;;13.73;;
58240;SDS011;45058;55.772;38.224;2024-02-21T05:22:15;28.67;;;13.77;;
58240;SDS011;45058;55.772;38.224;2024-02-21T05:24:41;23.63;;;13.77;;
58240;SDS011;45058;55.772;38.224;2024-02-21T05:27:07;29.37;;;14.77;;
58240;SDS011;45058;55.772;38.224;2024-02-21T05:29:33;21.17;;;12.53;;
58240;SDS011;45058;55.772;38.224;2024-02-21T05:31:59;25.50;;;13.90;;
58240;SDS011;45058;55.772;38.224;2024-02-21T05:34:26;23.83;;;13.33;;
58240;SDS011;45058;55.772;38.224;2024-02-21T05:36:52;25.20;;;13.10;;
58240;SDS011;45058;55.772;38.224;2024-02-21T05:39:18;25.03;;;14.30;;
58240;SDS011;45058;55.772;38.224;2024-02-21T05:41:45;25.27;;;13.03;;
58240;SDS011;45058;55.772;38.224;2024-02-21T05:44:11;21.27;;;12.50;;
58240;SDS011;45058;55.772;38.224;2024-02-21T05:46:37;22.40;;;13.13;;
58240;SDS011;45058;55.772;38.224;2024-02-21T05:49:03;20.17;;;12.10;;
58240;SDS011;45058;55.772;38.224;2024-02-21T05:51:33;23.63;;;13.30;;
58240;SDS011;45058;55.772;38.224;2024-02-21T05:54:00;26.27;;;12.80;;
58240;SDS011;45058;55.772;38.224;2024-02-21T05:56:26;24.27;;;13.37;;
58240;SDS011;45058;55.772;38.224;2024-02-21T05:58:52;26.77;;;13.50;;
58240;SDS011;45058;55.772;38.224;2024-02-21T06:01:18;22.37;;;12.93;;
58240;SDS011;45058;55.772;38.224;2024-02-21T06:03:45;21.27;;;12.27;;
58240;SDS011;45058;55.772;38.224;2024-02-21T06:06:11;22.83;;;12.00;;
58240;SDS011;45058;55.772;38.224;2024-02-21T06:08:37;20.73;;;12.83;;
58240;SDS011;45058;55.772;38.224;2024-02-21T06:11:05;25.37;;;13.53;;
58240;SDS011;45058;55.772;38.224;2024-02-21T06:13:31;20.57;;;12.70;;
58240;SDS011;45058;55.772;38.224;2024-02-21T06:15:57;22.23;;;13.57;;
58240;SDS011;45058;55.772;38.224;2024-02-21T06:18:24;22.80;;;13.40;;
58240;SDS011;45058;55.772;38.224;2024-02-21T06:20:50;18.43;;;11.97;;
58240;SDS011;45058;55.772;38.224;2024-02-21T06:23:16;22.43;;;12.60;;
58240;SDS011;45058;55.772;38.224;2024-02-21T06:25:43;20.40;;;12.70;;
58240;SDS011;45058;55.772;38.224;2024-02-21T06:28:09;21.40;;;13.00;;
58240;SDS011;45058;55.772;38.224;2024-02-21T06:30:35;32.57;;;13.37;;
58240;SDS011;45058;55.772;38.224;2024-02-21T06:33:01;26.07;;;13.57;;
58240;SDS011;45058;55.772;38.224;2024-02-21T06:35:28;20.63;;;12.57;;
58240;SDS011;45058;55.772;38.224;2024-02-21T06:37:54;20.93;;;12.50;;
58240;SDS011;45058;55.772;38.224;2024-02-21T06:40:21;21.33;;;12.47;;
58240;SDS011;45058;55.772;38.224;2024-02-21T06:42:48;22.40;;;12.90;;
58240;SDS011;45058;55.772;38.224;2024-02-21T06:45:15;22.77;;;12.30;;
58240;SDS011;45058;55.772;38.224;2024-02-21T06:47:41;18.97;;;11.30;;
58240;SDS011;45058;55.772;38.224;2024-02-21T06:50:08;21.77;;;11.20;;
58240;SDS011;45058;55.772;38.224;2024-02-21T06:52:35;18.40;;;11.70;;
58240;SDS011;45058;55.772;38.224;2024-02-21T06:55:02;26.17;;;12.30;;
58240;SDS011;45058;55.772;38.224;2024-02-21T06:57:30;22.27;;;12.43;;
58240;SDS011;45058;55.772;38.224;2024-02-21T06:59:56;22.47;;;12.87;;
58240;SDS011;45058;55.772;38.224;2024-02-21T07:02:22;27.37;;;13.30;;
58240;SDS011;45058;55.772;38.224;2024-02-21T07:04:50;30.07;;;14.63;;
58240;SDS011;45058;55.772;38.224;2024-02-21T07:07:20;22.70;;;13.37;;
58240;SDS011;45058;55.772;38.224;2024-02-21T07:09:50;22.33;;;12.23;;
58240;SDS011;45058;55.772;38.224;2024-02-21T07:12:23;21.70;;;12.20;;
58240;SDS011;45058;55.772;38.224;2024-02-21T07:14:50;21.43;;;12.33;;
58240;SDS011;45058;55.772;38.224;2024-02-21T07:17:16;22.30;;;12.47;;
58240;SDS011;45058;55.772;38.224;2024-02-21T07:19:43;19.37;;;11.70;;
58240;SDS011;45058;55.772;38.224;2024-02-21T07:22:10;22.47;;;12.50;;
58240;SDS011;45058;55.772;38.224;2024-02-21T07:24:40;19.83;;;12.13;;
58240;SDS011;45058;55.772;38.224;2024-02-21T07:27:06;23.63;;;11.83;;
58240;SDS011;45058;55.772;38.224;2024-02-21T07:29:34;23.47;;;12.90;;
58240;SDS011;45058;55.772;38.224;2024-02-21T07:32:02;17.47;;;10.80;;
58240;SDS011;45058;55.772;38.224;2024-02-21T07:34:28;22.67;;;12.37;;
58240;SDS011;45058;55.772;38.224;2024-02-21T07:37:00;24.53;;;13.13;;
58240;SDS011;45058;55.772;38.224;2024-02-21T07:39:27;21.80;;;12.30;;
58240;SDS011;45058;55.772;38.224;2024-02-21T07:41:55;19.50;;;11.80;;
58240;SDS011;45058;55.772;38.224;2024-02-21T07:44:25;20.27;;;12.50;;
58240;SDS011;45058;55.772;38.224;2024-02-21T07:46:51;19.90;;;11.47;;
58240;SDS011;45058;55.772;38.224;2024-02-21T07:49:21;24.53;;;12.97;;
58240;SDS011;45058;55.772;38.224;2024-02-21T07:51:48;22.40;;;12.17;;
58240;SDS011;45058;55.772;38.224;2024-02-21T07:54:14;19.93;;;12.03;;
58240;SDS011;45058;55.772;38.224;2024-02-21T07:56:40;19.50;;;11.50;;
58240;SDS011;45058;55.772;38.224;2024-02-21T07:59:10;20.97;;;12.17;;
58240;SDS011;45058;55.772;38.224;2024-02-21T08:01:36;20.67;;;11.30;;
58240;SDS011;45058;55.772;38.224;2024-02-21T08:04:05;18.10;;;11.63;;
58240;SDS011;45058;55.772;38.224;2024-02-21T08:06:34;19.03;;;12.27;;
58240;SDS011;45058;55.772;38.224;2024-02-21T08:09:04;18.17;;;11.93;;
58240;SDS011;45058;55.772;38.224;2024-02-21T08:11:34;22.93;;;11.73;;
58240;SDS011;45058;55.772;38.224;2024-02-21T08:14:01;19.80;;;12.23;;
58240;SDS011;45058;55.772;38.224;2024-02-21T08:16:29;19.17;;;11.57;;
58240;SDS011;45058;55.772;38.224;2024-02-21T08:18:57;19.43;;;11.47;;
58240;SDS011;45058;55.772;38.224;2024-02-21T08:21:25;18.60;;;11.03;;
58240;SDS011;45058;55.772;38.224;2024-02-21T08:23:52;21.33;;;12.00;;
58240;SDS011;45058;55.772;38.224;2024-02-21T08:26:20;18.60;;;11.53;;
58240;SDS011;45058;55.772;38.224;2024-02-21T08:28:46;17.93;;;10.67;;
58240;SDS011;45058;55.772;38.224;2024-02-21T08:31:18;16.37;;;10.67;;
58240;SDS011;45058;55.772;38.224;2024-02-21T08:36:19;19.20;;;10.83;;
58240;SDS011;45058;55.772;38.224;2024-02-21T08:38:47;18.10;;;11.70;;
58240;SDS011;45058;55.772;38.224;2024-02-21T08:41:13;20.07;;;11.23;;
58240;SDS011;45058;55.772;38.224;2024-02-21T08:43:40;18.13;;;11.20;;
58240;SDS011;45058;55.772;38.224;2024-02-21T08:46:07;19.77;;;12.33;;
58240;SDS011;45058;55.772;38.224;2024-02-21T08:48:33;19.57;;;10.67;;
58240;SDS011;45058;55.772;38.224;2024-02-21T08:51:00;17.83;;;10.33;;
58240;SDS011;45058;55.772;38.224;2024-02-21T08:53:27;20.43;;;11.00;;
58240;SDS011;45058;55.772;38.224;2024-02-21T08:55:56;18.70;;;11.77;;
58240;SDS011;45058;55.772;38.224;2024-02-21T08:58:26;19.70;;;12.10;;
58240;SDS011;45058;55.772;38.224;2024-02-21T09:00:52;18.07;;;11.70;;
58240;SDS011;45058;55.772;38.224;2024-02-21T09:03:19;18.70;;;11.10;;
58240;SDS011;45058;55.772;38.224;2024-02-21T09:05:51;19.00;;;10.93;;
58240;SDS011;45058;55.772;38.224;2024-02-21T09:08:21;19.13;;;11.63;;
58240;SDS011;45058;55.772;38.224;2024-02-21T09:10:47;19.03;;;11.07;;
58240;SDS011;45058;55.772;38.224;2024-02-21T09:13:22;19.83;;;11.60;;
58240;SDS011;45058;55.772;38.224;2024-02-21T09:15:52;18.67;;;10.73;;
58240;SDS011;45058;55.772;38.224;2024-02-21T09:18:25;20.17;;;10.40;;
58240;SDS011;45058;55.772;38.224;2024-02-21T09:20:52;19.93;;;11.93;;
58240;SDS011;45058;55.772;38.224;2024-02-21T09:23:18;16.80;;;10.57;;
58240;SDS011;45058;55.772;38.224;2024-02-21T09:25:45;18.60;;;11.00;;
58240;SDS011;45058;55.772;38.224;2024-02-21T12:13:57;18.77;;;10.23;;
58240;SDS011;45058;55.772;38.224;2024-02-21T12:16:32;15.83;;;9.17;;
58240;SDS011;45058;55.772;38.224;2024-02-21T12:19:02;15.60;;;8.13;;
58240;SDS011;45058;55.772;38.224;2024-02-21T12:21:30;18.33;;;9.23;;
58240;SDS011;45058;55.772;38.224;2024-02-21T12:24:00;16.80;;;8.87;;
58240;SDS011;45058;55.772;38.224;2024-02-21T12:26:58;16.60;;;8.43;;
58240;SDS011;45058;55.772;38.224;2024-02-21T12:29:29;13.83;;;8.80;;
58240;SDS011;45058;55.772;38.224;2024-02-21T12:31:57;17.80;;;9.83;;
58240;SDS011;45058;55.772;38.224;2024-02-21T12:34:29;14.20;;;8.53;;
58240;SDS011;45058;55.772;38.224;2024-02-21T12:37:02;15.10;;;9.18;;
58240;SDS011;45058;55.772;38.224;2024-02-21T12:39:30;16.03;;;9.50;;
58240;SDS011;45058;55.772;38.224;2024-02-21T12:41:57;16.63;;;9.17;;
58240;SDS011;45058;55.772;38.224;2024-02-21T12:44:28;14.20;;;9.00;;
58240;SDS011;45058;55.772;38.224;2024-02-21T12:47:00;18.90;;;8.67;;
58240;SDS011;45058;55.772;38.224;2024-02-21T12:49:27;15.57;;;8.87;;
58240;SDS011;45058;55.772;38.224;2024-02-21T12:51:58;19.17;;;8.80;;
58240;SDS011;45058;55.772;38.224;2024-02-21T12:54:30;13.27;;;8.75;;
58240;SDS011;45058;55.772;38.224;2024-02-21T12:57:00;14.70;;;8.60;;
58240;SDS011;45058;55.772;38.224;2024-02-21T12:59:31;16.27;;;9.60;;
58240;SDS011;45058;55.772;38.224;2024-02-21T13:02:00;13.83;;;7.67;;
58240;SDS011;45058;55.772;38.224;2024-02-21T13:04:27;15.17;;;8.47;;
58240;SDS011;45058;55.772;38.224;2024-02-21T13:06:54;11.90;;;8.40;;
58240;SDS011;45058;55.772;38.224;2024-02-21T13:09:21;16.90;;;8.57;;
58240;SDS011;45058;55.772;38.224;2024-02-21T13:11:48;16.30;;;8.50;;
58240;SDS011;45058;55.772;38.224;2024-02-21T13:14:20;12.03;;;7.50;;
58240;SDS011;45058;55.772;38.224;2024-02-21T13:16:51;13.90;;;9.13;;
58240;SDS011;45058;55.772;38.224;2024-02-21T13:19:25;20.03;;;9.03;;
58240;SDS011;45058;55.772;38.224;2024-02-21T13:21:51;13.97;;;8.43;;
58240;SDS011;45058;55.772;38.224;2024-02-21T13:24:18;19.97;;;10.07;;
58240;SDS011;45058;55.772;38.224;2024-02-21T13:26:46;15.27;;;8.17;;
58240;SDS011;45058;55.772;38.224;2024-02-21T13:29:14;15.87;;;10.17;;
58240;SDS011;45058;55.772;38.224;2024-02-21T13:31:41;13.90;;;8.67;;
58240;SDS011;45058;55.772;38.224;2024-02-21T13:34:10;20.03;;;9.10;;
58240;SDS011;45058;55.772;38.224;2024-02-21T13:36:40;18.20;;;9.53;;
58240;SDS011;45058;55.772;38.224;2024-02-21T13:39:10;16.37;;;9.57;;
58240;SDS011;45058;55.772;38.224;2024-02-21T13:41:44;22.27;;;10.17;;
58240;SDS011;45058;55.772;38.224;2024-02-21T13:44:11;14.20;;;9.17;;
58240;SDS011;45058;55.772;38.224;2024-02-21T13:46:39;17.47;;;11.07;;
58240;SDS011;45058;55.772;38.224;2024-02-21T13:49:09;16.23;;;9.77;;
58240;SDS011;45058;55.772;38.224;2024-02-21T13:51:35;17.60;;;10.70;;
58240;SDS011;45058;55.772;38.224;2024-02-21T13:54:04;19.67;;;11.20;;
58240;SDS011;45058;55.772;38.224;2024-02-21T13:56:30;25.43;;;11.30;;
58240;SDS011;45058;55.772;38.224;2024-02-21T13:59:02;22.00;;;10.50;;
58240;SDS011;45058;55.772;38.224;2024-02-21T14:01:29;19.20;;;10.93;;
58240;SDS011;45058;55.772;38.224;2024-02-21T14:03:57;19.80;;;11.70;;
58240;SDS011;45058;55.772;38.224;2024-02-21T14:06:28;18.87;;;11.27;;
58240;SDS011;45058;55.772;38.224;2024-02-21T14:08:55;19.30;;;11.27;;
58240;SDS011;45058;55.772;38.224;2024-02-21T14:11:22;21.23;;;10.87;;
58240;SDS011;45058;55.772;38.224;2024-02-21T14:14:03;20.53;;;11.03;;
58240;SDS011;45058;55.772;38.224;2024-02-21T14:16:33;23.00;;;11.97;;
58240;SDS011;45058;55.772;38.224;2024-02-21T14:19:17;21.77;;;11.70;;
58240;SDS011;45058;55.772;38.224;2024-02-21T14:21:45;21.17;;;11.40;;
58240;SDS011;45058;55.772;38.224;2024-02-21T14:24:13;22.60;;;12.60;;
58240;SDS011;45058;55.772;38.224;2024-02-21T14:26:47;20.40;;;11.13;;
58240;SDS011;45058;55.772;38.224;2024-02-21T14:29:14;23.47;;;12.17;;
58240;SDS011;45058;55.772;38.224;2024-02-21T14:31:42;17.83;;;11.37;;
58240;SDS011;45058;55.772;38.224;2024-02-21T14:34:11;23.53;;;11.33;;
58240;SDS011;45058;55.772;38.224;2024-02-21T14:36:41;22.37;;;12.33;;
58240;SDS011;45058;55.772;38.224;2024-02-21T14:39:09;19.50;;;11.90;;
58240;SDS011;45058;55.772;38.224;2024-02-21T14:41:39;21.13;;;11.93;;
58240;SDS011;45058;55.772;38.224;2024-02-21T14:44:11;23.13;;;12.23;;
58240;SDS011;45058;55.772;38.224;2024-02-21T14:46:37;21.40;;;11.70;;
58240;SDS011;45058;55.772;38.224;2024-02-21T14:49:08;19.77;;;12.10;;
58240;SDS011;45058;55.772;38.224;2024-02-21T14:51:37;19.90;;;11.43;;
58240;SDS011;45058;55.772;38.224;2024-02-21T14:54:03;23.23;;;12.33;;
58240;SDS011;45058;55.772;38.224;2024-02-21T14:56:30;21.77;;;12.00;;
58240;SDS011;45058;55.772;38.224;2024-02-21T14:58:57;23.73;;;13.03;;
58240;SDS011;45058;55.772;38.224;2024-02-21T15:01:29;23.23;;;12.77;;
58240;SDS011;45058;55.772;38.224;2024-02-21T15:04:00;22.87;;;12.77;;
58240;SDS011;45058;55.772;38.224;2024-02-21T15:06:30;20.37;;;12.30;;
58240;SDS011;45058;55.772;38.224;2024-02-21T15:09:05;23.67;;;12.80;;
58240;SDS011;45058;55.772;38.224;2024-02-21T15:11:36;23.57;;;12.53;;
58240;SDS011;45058;55.772;38.224;2024-02-21T15:14:05;20.77;;;13.00;;
58240;SDS011;45058;55.772;38.224;2024-02-21T15:16:33;19.93;;;11.37;;
58240;SDS011;45058;55.772;38.224;2024-02-21T15:19:05;21.43;;;13.17;;
58240;SDS011;45058;55.772;38.224;2024-02-21T15:21:33;23.20;;;12.80;;
58240;SDS011;45058;55.772;38.224;2024-02-21T15:24:03;22.00;;;11.90;;
58240;SDS011;45058;55.772;38.224;2024-02-21T15:26:30;17.77;;;10.50;;
58240;SDS011;45058;55.772;38.224;2024-02-21T15:28:59;17.87;;;10.67;;
58240;SDS011;45058;55.772;38.224;2024-02-21T15:31:25;18.40;;;11.53;;
58240;SDS011;45058;55.772;38.224;2024-02-21T15:34:03;27.10;;;11.93;;
58240;SDS011;45058;55.772;38.224;2024-02-21T15:36:30;21.27;;;11.57;;
58240;SDS011;45058;55.772;38.224;2024-02-21T15:39:01;19.80;;;11.17;;
58240;SDS011;45058;55.772;38.224;2024-02-21T15:41:35;20.43;;;11.77;;
58240;SDS011;45058;55.772;38.224;2024-02-21T15:44:04;19.90;;;11.37;;
58240;SDS011;45058;55.772;38.224;2024-02-21T15:46:34;21.07;;;11.40;;
58240;SDS011;45058;55.772;38.224;2024-02-21T15:49:03;24.07;;;11.93;;
58240;SDS011;45058;55.772;38.224;2024-02-21T15:51:29;22.13;;;9.73;;
58240;SDS011;45058;55.772;38.224;2024-02-21T15:53:59;23.50;;;11.37;;
58240;SDS011;45058;55.772;38.224;2024-02-21T15:56:26;22.40;;;12.27;;
58240;SDS011;45058;55.772;38.224;2024-02-21T15:58:53;22.03;;;11.43;;
58240;SDS011;45058;55.772;38.224;2024-02-21T16:01:21;21.80;;;12.17;;
58240;SDS011;45058;55.772;38.224;2024-02-21T16:03:52;25.27;;;12.13;;
58240;SDS011;45058;55.772;38.224;2024-02-21T16:06:22;22.23;;;12.37;;
58240;SDS011;45058;55.772;38.224;2024-02-21T16:08:51;25.77;;;13.47;;
58240;SDS011;45058;55.772;38.224;2024-02-21T16:11:22;26.33;;;13.90;;
58240;SDS011;45058;55.772;38.224;2024-02-21T16:13:51;21.73;;;13.23;;
58240;SDS011;45058;55.772;38.224;2024-02-21T16:16:22;26.37;;;13.77;;
58240;SDS011;45058;55.772;38.224;2024-02-21T16:18:49;22.90;;;13.40;;
58240;SDS011;45058;55.772;38.224;2024-02-21T16:21:29;24.60;;;13.63;;
58240;SDS011;45058;55.772;38.224;2024-02-21T16:24:02;26.73;;;14.13;;
58240;SDS011;45058;55.772;38.224;2024-02-21T16:26:34;23.30;;;13.67;;
58240;SDS011;45058;55.772;38.224;2024-02-21T16:29:04;33.33;;;14.73;;
58240;SDS011;45058;55.772;38.224;2024-02-21T16:31:35;21.40;;;12.90;;
58240;SDS011;45058;55.772;38.224;2024-02-21T16:34:04;24.30;;;14.00;;
58240;SDS011;45058;55.772;38.224;2024-02-21T16:36:39;25.00;;;13.70;;
58240;SDS011;45058;55.772;38.224;2024-02-21T16:39:10;19.03;;;12.37;;
58240;SDS011;45058;55.772;38.224;2024-02-21T16:41:43;26.77;;;13.43;;
58240;SDS011;45058;55.772;38.224;2024-02-21T16:44:12;25.80;;;14.73;;
58240;SDS011;45058;55.772;38.224;2024-02-21T16:46:40;23.20;;;12.73;;
58240;SDS011;45058;55.772;38.224;2024-02-21T16:49:09;20.70;;;12.00;;
58240;SDS011;45058;55.772;38.224;2024-02-21T16:51:40;24.33;;;13.17;;
58240;SDS011;45058;55.772;38.224;2024-02-21T16:54:08;21.30;;;12.77;;
58240;SDS011;45058;55.772;38.224;2024-02-21T16:56:35;23.60;;;13.33;;
58240;SDS011;45058;55.772;38.224;2024-02-21T16:59:10;24.30;;;14.33;;
58240;SDS011;45058;55.772;38.224;2024-02-21T17:01:38;27.63;;;14.87;;
58240;SDS011;45058;55.772;38.224;2024-02-21T17:04:06;26.77;;;14.57;;